sensor_id;sensor_type;location;lat;lon;timestamp;P1;durP1;ratioP1;P2;durP2;ratioP2
58222;SDS011;44020;50.890;15.796;2023-04-15T00:05:33;29.40;;;16.60;;
58222;SDS011;44020;50.890;15.796;2023-04-15T00:24:52;15.90;;;10.80;;
58222;SDS011;44020;50.890;15.796;2023-04-15T00:40:51;17.50;;;11.80;;
58222;SDS011;44020;50.890;15.796;2023-04-15T00:43:20;20.10;;;12.70;;
58222;SDS011;44020;50.890;15.796;2023-04-15T00:46:16;22.90;;;13.10;;
58222;SDS011;44020;50.890;15.796;2023-04-15T00:49:02;20.60;;;12.80;;
58222;SDS011;44020;50.890;15.796;2023-04-15T00:51:44;19.50;;;12.40;;
58222;SDS011;44020;50.890;15.796;2023-04-15T00:54:47;19.50;;;12.40;;
58222;SDS011;44020;50.890;15.796;2023-04-15T01:03:34;21.30;;;13.10;;
58222;SDS011;44020;50.890;15.796;2023-04-15T01:06:01;21.00;;;12.90;;
58222;SDS011;44020;50.890;15.796;2023-04-15T01:11:57;19.50;;;13.00;;
58222;SDS011;44020;50.890;15.796;2023-04-15T01:17:56;21.70;;;12.90;;
58222;SDS011;44020;50.890;15.796;2023-04-15T01:20:28;21.30;;;13.10;;
58222;SDS011;44020;50.890;15.796;2023-04-15T01:26:15;20.40;;;12.60;;
58222;SDS011;44020;50.890;15.796;2023-04-15T01:28:43;19.50;;;12.10;;
58222;SDS011;44020;50.890;15.796;2023-04-15T01:48:19;15.10;;;9.00;;
58222;SDS011;44020;50.890;15.796;2023-04-15T02:00:54;14.80;;;9.70;;
58222;SDS011;44020;50.890;15.796;2023-04-15T02:04:12;14.60;;;8.80;;
58222;SDS011;44020;50.890;15.796;2023-04-15T02:10:15;14.20;;;8.70;;
58222;SDS011;44020;50.890;15.796;2023-04-15T02:13:24;16.00;;;9.70;;
58222;SDS011;44020;50.890;15.796;2023-04-15T02:19:38;14.90;;;9.50;;
58222;SDS011;44020;50.890;15.796;2023-04-15T02:43:02;7.30;;;4.70;;
58222;SDS011;44020;50.890;15.796;2023-04-15T03:05:59;3.30;;;2.20;;
58222;SDS011;44020;50.890;15.796;2023-04-15T03:16:01;3.40;;;1.30;;
58222;SDS011;44020;50.890;15.796;2023-04-15T03:28:30;2.00;;;1.20;;
58222;SDS011;44020;50.890;15.796;2023-04-15T03:31:05;5.10;;;2.30;;
58222;SDS011;44020;50.890;15.796;2023-04-15T03:40:47;7.20;;;3.60;;
58222;SDS011;44020;50.890;15.796;2023-04-15T03:43:50;8.20;;;2.90;;
58222;SDS011;44020;50.890;15.796;2023-04-15T04:03:37;2.60;;;1.20;;
58222;SDS011;44020;50.890;15.796;2023-04-15T04:29:08;0.90;;;0.50;;
58222;SDS011;44020;50.890;15.796;2023-04-15T04:31:34;0.70;;;0.60;;
58222;SDS011;44020;50.890;15.796;2023-04-15T04:34:22;0.50;;;0.40;;
58222;SDS011;44020;50.890;15.796;2023-04-15T04:37:07;0.60;;;0.40;;
58222;SDS011;44020;50.890;15.796;2023-04-15T04:39:45;0.30;;;0.30;;
58222;SDS011;44020;50.890;15.796;2023-04-15T04:42:16;0.60;;;0.30;;
58222;SDS011;44020;50.890;15.796;2023-04-15T04:44:42;0.80;;;0.50;;
58222;SDS011;44020;50.890;15.796;2023-04-15T04:47:19;0.60;;;0.40;;
58222;SDS011;44020;50.890;15.796;2023-04-15T04:50:10;0.70;;;0.40;;
58222;SDS011;44020;50.890;15.796;2023-04-15T04:52:38;0.60;;;0.50;;
58222;SDS011;44020;50.890;15.796;2023-04-15T04:55:17;0.90;;;0.60;;
58222;SDS011;44020;50.890;15.796;2023-04-15T04:57:45;0.90;;;0.80;;
58222;SDS011;44020;50.890;15.796;2023-04-15T05:00:23;1.10;;;0.60;;
58222;SDS011;44020;50.890;15.796;2023-04-15T05:03:16;0.90;;;0.70;;
58222;SDS011;44020;50.890;15.796;2023-04-15T05:06:07;0.70;;;0.60;;
58222;SDS011;44020;50.890;15.796;2023-04-15T05:08:43;0.50;;;0.50;;
58222;SDS011;44020;50.890;15.796;2023-04-15T05:11:10;0.90;;;0.50;;
58222;SDS011;44020;50.890;15.796;2023-04-15T05:13:47;1.20;;;0.70;;
58222;SDS011;44020;50.890;15.796;2023-04-15T05:16:35;0.60;;;0.50;;
58222;SDS011;44020;50.890;15.796;2023-04-15T05:19:05;0.90;;;0.60;;
58222;SDS011;44020;50.890;15.796;2023-04-15T05:21:36;0.90;;;0.50;;
58222;SDS011;44020;50.890;15.796;2023-04-15T05:24:06;0.80;;;0.60;;
58222;SDS011;44020;50.890;15.796;2023-04-15T05:26:41;0.40;;;0.40;;
58222;SDS011;44020;50.890;15.796;2023-04-15T05:29:08;2.90;;;0.80;;
58222;SDS011;44020;50.890;15.796;2023-04-15T05:31:39;1.40;;;0.80;;
58222;SDS011;44020;50.890;15.796;2023-04-15T05:34:06;1.00;;;0.80;;
58222;SDS011;44020;50.890;15.796;2023-04-15T05:36:38;1.40;;;1.00;;
58222;SDS011;44020;50.890;15.796;2023-04-15T05:39:26;1.20;;;0.80;;
58222;SDS011;44020;50.890;15.796;2023-04-15T05:41:57;1.60;;;1.00;;
58222;SDS011;44020;50.890;15.796;2023-04-15T05:44:28;1.40;;;1.00;;
58222;SDS011;44020;50.890;15.796;2023-04-15T05:46:58;2.00;;;1.20;;
58222;SDS011;44020;50.890;15.796;2023-04-15T05:55:57;1.40;;;1.00;;
58222;SDS011;44020;50.890;15.796;2023-04-15T05:58:35;1.80;;;1.20;;
58222;SDS011;44020;50.890;15.796;2023-04-15T06:04:04;1.80;;;1.00;;
58222;SDS011;44020;50.890;15.796;2023-04-15T06:06:42;1.20;;;0.90;;
58222;SDS011;44020;50.890;15.796;2023-04-15T06:12:21;1.40;;;0.70;;
58222;SDS011;44020;50.890;15.796;2023-04-15T06:14:59;1.00;;;0.70;;
58222;SDS011;44020;50.890;15.796;2023-04-15T06:17:27;0.90;;;0.80;;
58222;SDS011;44020;50.890;15.796;2023-04-15T06:20:13;1.20;;;0.90;;
58222;SDS011;44020;50.890;15.796;2023-04-15T06:22:44;1.20;;;0.80;;
58222;SDS011;44020;50.890;15.796;2023-04-15T06:25:25;1.30;;;0.70;;
58222;SDS011;44020;50.890;15.796;2023-04-15T06:28:01;0.80;;;0.60;;
58222;SDS011;44020;50.890;15.796;2023-04-15T06:30:57;1.90;;;0.70;;
58222;SDS011;44020;50.890;15.796;2023-04-15T06:36:40;0.90;;;0.60;;
58222;SDS011;44020;50.890;15.796;2023-04-15T06:39:30;1.00;;;0.90;;
58222;SDS011;44020;50.890;15.796;2023-04-15T06:41:58;1.20;;;0.70;;
58222;SDS011;44020;50.890;15.796;2023-04-15T06:44:29;2.50;;;1.30;;
58222;SDS011;44020;50.890;15.796;2023-04-15T06:47:00;3.60;;;1.80;;
58222;SDS011;44020;50.890;15.796;2023-04-15T06:49:37;5.20;;;1.80;;
58222;SDS011;44020;50.890;15.796;2023-04-15T06:52:31;1.80;;;1.20;;
58222;SDS011;44020;50.890;15.796;2023-04-15T06:55:19;1.60;;;1.00;;
58222;SDS011;44020;50.890;15.796;2023-04-15T06:57:50;1.10;;;0.70;;
58222;SDS011;44020;50.890;15.796;2023-04-15T07:00:40;1.00;;;0.70;;
58222;SDS011;44020;50.890;15.796;2023-04-15T07:03:16;1.20;;;0.70;;
58222;SDS011;44020;50.890;15.796;2023-04-15T07:06:04;0.90;;;0.50;;
58222;SDS011;44020;50.890;15.796;2023-04-15T07:08:45;1.00;;;0.70;;
58222;SDS011;44020;50.890;15.796;2023-04-15T07:11:15;2.60;;;1.00;;
58222;SDS011;44020;50.890;15.796;2023-04-15T07:13:43;2.00;;;1.00;;
58222;SDS011;44020;50.890;15.796;2023-04-15T07:16:18;1.60;;;0.60;;
58222;SDS011;44020;50.890;15.796;2023-04-15T07:18:46;1.10;;;0.90;;
58222;SDS011;44020;50.890;15.796;2023-04-15T07:21:13;1.40;;;0.70;;
58222;SDS011;44020;50.890;15.796;2023-04-15T07:24:00;0.90;;;0.70;;
58222;SDS011;44020;50.890;15.796;2023-04-15T07:26:30;1.50;;;1.00;;
58222;SDS011;44020;50.890;15.796;2023-04-15T07:29:20;1.20;;;1.00;;
58222;SDS011;44020;50.890;15.796;2023-04-15T07:35:11;1.00;;;0.70;;
58222;SDS011;44020;50.890;15.796;2023-04-15T07:40:34;0.70;;;0.40;;
58222;SDS011;44020;50.890;15.796;2023-04-15T07:43:12;0.90;;;0.60;;
58222;SDS011;44020;50.890;15.796;2023-04-15T07:45:40;1.10;;;0.50;;
58222;SDS011;44020;50.890;15.796;2023-04-15T07:48:20;0.80;;;0.40;;
58222;SDS011;44020;50.890;15.796;2023-04-15T07:50:47;0.70;;;0.50;;
58222;SDS011;44020;50.890;15.796;2023-04-15T07:53:23;0.60;;;0.30;;
58222;SDS011;44020;50.890;15.796;2023-04-15T07:55:52;1.10;;;0.50;;
58222;SDS011;44020;50.890;15.796;2023-04-15T07:58:19;1.70;;;0.40;;
58222;SDS011;44020;50.890;15.796;2023-04-15T08:00:49;1.50;;;0.30;;
58222;SDS011;44020;50.890;15.796;2023-04-15T08:03:21;0.30;;;0.10;;
58222;SDS011;44020;50.890;15.796;2023-04-15T08:05:49;0.70;;;0.30;;
58222;SDS011;44020;50.890;15.796;2023-04-15T08:08:16;0.80;;;0.40;;
58222;SDS011;44020;50.890;15.796;2023-04-15T08:10:44;0.50;;;0.30;;
58222;SDS011;44020;50.890;15.796;2023-04-15T08:13:15;0.40;;;0.10;;
58222;SDS011;44020;50.890;15.796;2023-04-15T08:15:43;1.20;;;0.20;;
58222;SDS011;44020;50.890;15.796;2023-04-15T08:18:31;0.40;;;0.20;;
58222;SDS011;44020;50.890;15.796;2023-04-15T08:21:01;0.30;;;0.10;;
58222;SDS011;44020;50.890;15.796;2023-04-15T08:23:30;0.30;;;0.20;;
58222;SDS011;44020;50.890;15.796;2023-04-15T08:26:02;0.10;;;0.10;;
58222;SDS011;44020;50.890;15.796;2023-04-15T08:28:44;0.60;;;0.20;;
58222;SDS011;44020;50.890;15.796;2023-04-15T08:31:15;0.10;;;0.10;;
58222;SDS011;44020;50.890;15.796;2023-04-15T08:33:44;0.50;;;0.30;;
58222;SDS011;44020;50.890;15.796;2023-04-15T08:36:21;0.40;;;0.20;;
58222;SDS011;44020;50.890;15.796;2023-04-15T08:38:49;1.20;;;0.10;;
58222;SDS011;44020;50.890;15.796;2023-04-15T08:41:20;0.30;;;0.10;;
58222;SDS011;44020;50.890;15.796;2023-04-15T08:44:03;0.20;;;0.10;;
58222;SDS011;44020;50.890;15.796;2023-04-15T08:46:40;0.20;;;0.10;;
58222;SDS011;44020;50.890;15.796;2023-04-15T08:49:11;0.20;;;0.10;;
58222;SDS011;44020;50.890;15.796;2023-04-15T08:51:40;0.30;;;0.20;;
58222;SDS011;44020;50.890;15.796;2023-04-15T08:54:08;0.10;;;0.10;;
58222;SDS011;44020;50.890;15.796;2023-04-15T08:56:46;0.10;;;0.10;;
58222;SDS011;44020;50.890;15.796;2023-04-15T08:59:23;0.30;;;0.20;;
58222;SDS011;44020;50.890;15.796;2023-04-15T09:01:54;0.20;;;0.10;;
58222;SDS011;44020;50.890;15.796;2023-04-15T09:04:46;0.20;;;0.10;;
58222;SDS011;44020;50.890;15.796;2023-04-15T09:07:14;1.10;;;0.20;;
58222;SDS011;44020;50.890;15.796;2023-04-15T09:09:42;1.00;;;0.20;;
58222;SDS011;44020;50.890;15.796;2023-04-15T09:12:10;3.90;;;0.50;;
58222;SDS011;44020;50.890;15.796;2023-04-15T09:14:44;0.60;;;0.20;;
58222;SDS011;44020;50.890;15.796;2023-04-15T09:17:44;0.30;;;0.20;;
58222;SDS011;44020;50.890;15.796;2023-04-15T09:20:12;2.40;;;0.20;;
58222;SDS011;44020;50.890;15.796;2023-04-15T09:22:44;1.20;;;0.30;;
58222;SDS011;44020;50.890;15.796;2023-04-15T09:28:01;0.70;;;0.20;;
58222;SDS011;44020;50.890;15.796;2023-04-15T09:30:28;4.60;;;0.30;;
58222;SDS011;44020;50.890;15.796;2023-04-15T09:32:57;0.30;;;0.20;;
58222;SDS011;44020;50.890;15.796;2023-04-15T09:35:26;0.90;;;0.30;;
58222;SDS011;44020;50.890;15.796;2023-04-15T09:38:04;0.90;;;0.10;;
58222;SDS011;44020;50.890;15.796;2023-04-15T09:40:33;0.20;;;0.20;;
58222;SDS011;44020;50.890;15.796;2023-04-15T09:43:03;0.80;;;0.20;;
58222;SDS011;44020;50.890;15.796;2023-04-15T09:45:32;0.30;;;0.20;;
58222;SDS011;44020;50.890;15.796;2023-04-15T09:48:15;1.20;;;0.20;;
58222;SDS011;44020;50.890;15.796;2023-04-15T09:50:43;3.00;;;0.30;;
58222;SDS011;44020;50.890;15.796;2023-04-15T09:53:10;0.70;;;0.30;;
58222;SDS011;44020;50.890;15.796;2023-04-15T09:55:45;0.30;;;0.20;;
58222;SDS011;44020;50.890;15.796;2023-04-15T09:58:28;0.50;;;0.20;;
58222;SDS011;44020;50.890;15.796;2023-04-15T10:00:57;1.00;;;0.30;;
58222;SDS011;44020;50.890;15.796;2023-04-15T10:03:28;1.20;;;0.30;;
58222;SDS011;44020;50.890;15.796;2023-04-15T10:05:58;0.40;;;0.20;;
58222;SDS011;44020;50.890;15.796;2023-04-15T10:08:28;0.40;;;0.20;;
58222;SDS011;44020;50.890;15.796;2023-04-15T10:10:59;0.30;;;0.20;;
58222;SDS011;44020;50.890;15.796;2023-04-15T10:13:29;0.40;;;0.20;;
58222;SDS011;44020;50.890;15.796;2023-04-15T10:16:09;0.70;;;0.30;;
58222;SDS011;44020;50.890;15.796;2023-04-15T10:18:47;0.50;;;0.30;;
58222;SDS011;44020;50.890;15.796;2023-04-15T10:21:23;0.10;;;0.10;;
58222;SDS011;44020;50.890;15.796;2023-04-15T10:23:51;0.10;;;0.10;;
58222;SDS011;44020;50.890;15.796;2023-04-15T10:26:41;0.50;;;0.20;;
58222;SDS011;44020;50.890;15.796;2023-04-15T10:29:10;2.20;;;0.20;;
58222;SDS011;44020;50.890;15.796;2023-04-15T10:31:38;1.90;;;0.20;;
58222;SDS011;44020;50.890;15.796;2023-04-15T10:34:09;0.30;;;0.20;;
58222;SDS011;44020;50.890;15.796;2023-04-15T10:36:38;1.10;;;0.30;;
58222;SDS011;44020;50.890;15.796;2023-04-15T10:42:14;1.20;;;0.30;;
58222;SDS011;44020;50.890;15.796;2023-04-15T10:44:50;0.50;;;0.30;;
58222;SDS011;44020;50.890;15.796;2023-04-15T10:47:22;0.20;;;0.10;;
58222;SDS011;44020;50.890;15.796;2023-04-15T10:49:56;0.30;;;0.20;;
58222;SDS011;44020;50.890;15.796;2023-04-15T10:52:26;0.40;;;0.20;;
58222;SDS011;44020;50.890;15.796;2023-04-15T10:55:31;0.20;;;0.10;;
58222;SDS011;44020;50.890;15.796;2023-04-15T10:57:52;0.40;;;0.10;;
58222;SDS011;44020;50.890;15.796;2023-04-15T11:00:25;0.60;;;0.30;;
58222;SDS011;44020;50.890;15.796;2023-04-15T11:02:55;0.40;;;0.20;;
58222;SDS011;44020;50.890;15.796;2023-04-15T11:14:40;0.20;;;0.20;;
58222;SDS011;44020;50.890;15.796;2023-04-15T11:17:09;0.30;;;0.20;;
58222;SDS011;44020;50.890;15.796;2023-04-15T11:19:37;0.80;;;0.40;;
58222;SDS011;44020;50.890;15.796;2023-04-15T11:22:07;0.40;;;0.30;;
58222;SDS011;44020;50.890;15.796;2023-04-15T11:24:36;0.50;;;0.30;;
58222;SDS011;44020;50.890;15.796;2023-04-15T11:27:20;0.60;;;0.30;;
58222;SDS011;44020;50.890;15.796;2023-04-15T11:29:49;0.40;;;0.30;;
58222;SDS011;44020;50.890;15.796;2023-04-15T11:32:17;2.60;;;1.80;;
58222;SDS011;44020;50.890;15.796;2023-04-15T11:34:44;1.40;;;0.80;;
58222;SDS011;44020;50.890;15.796;2023-04-15T11:37:15;1.00;;;0.50;;
58222;SDS011;44020;50.890;15.796;2023-04-15T11:39:43;1.00;;;0.50;;
58222;SDS011;44020;50.890;15.796;2023-04-15T11:42:17;0.60;;;0.30;;
58222;SDS011;44020;50.890;15.796;2023-04-15T11:45:10;0.80;;;0.40;;
58222;SDS011;44020;50.890;15.796;2023-04-15T11:47:40;0.70;;;0.40;;
58222;SDS011;44020;50.890;15.796;2023-04-15T11:50:17;0.40;;;0.30;;
58222;SDS011;44020;50.890;15.796;2023-04-15T11:52:58;0.60;;;0.40;;
58222;SDS011;44020;50.890;15.796;2023-04-15T11:55:30;0.60;;;0.50;;
58222;SDS011;44020;50.890;15.796;2023-04-15T11:58:08;0.60;;;0.40;;
58222;SDS011;44020;50.890;15.796;2023-04-15T12:00:52;0.40;;;0.30;;
58222;SDS011;44020;50.890;15.796;2023-04-15T12:03:21;0.50;;;0.30;;
58222;SDS011;44020;50.890;15.796;2023-04-15T12:06:07;0.80;;;0.30;;
58222;SDS011;44020;50.890;15.796;2023-04-15T12:08:49;0.50;;;0.40;;
58222;SDS011;44020;50.890;15.796;2023-04-15T12:13:57;0.50;;;0.40;;
58222;SDS011;44020;50.890;15.796;2023-04-15T12:16:26;1.70;;;0.20;;
58222;SDS011;44020;50.890;15.796;2023-04-15T12:18:55;0.20;;;0.20;;
58222;SDS011;44020;50.890;15.796;2023-04-15T12:21:25;0.90;;;0.50;;
58222;SDS011;44020;50.890;15.796;2023-04-15T12:24:01;0.80;;;0.30;;
58222;SDS011;44020;50.890;15.796;2023-04-15T12:26:33;0.50;;;0.30;;
58222;SDS011;44020;50.890;15.796;2023-04-15T12:29:03;0.50;;;0.40;;
58222;SDS011;44020;50.890;15.796;2023-04-15T12:31:34;0.70;;;0.20;;
58222;SDS011;44020;50.890;15.796;2023-04-15T12:34:03;0.40;;;0.40;;
58222;SDS011;44020;50.890;15.796;2023-04-15T12:36:35;0.80;;;0.50;;
58222;SDS011;44020;50.890;15.796;2023-04-15T12:39:05;0.60;;;0.40;;
58222;SDS011;44020;50.890;15.796;2023-04-15T12:41:36;0.90;;;0.40;;
58222;SDS011;44020;50.890;15.796;2023-04-15T12:44:06;0.50;;;0.30;;
58222;SDS011;44020;50.890;15.796;2023-04-15T12:46:34;0.30;;;0.20;;
58222;SDS011;44020;50.890;15.796;2023-04-15T12:49:01;0.40;;;0.20;;
58222;SDS011;44020;50.890;15.796;2023-04-15T12:51:29;0.40;;;0.30;;
58222;SDS011;44020;50.890;15.796;2023-04-15T12:53:57;0.30;;;0.30;;
58222;SDS011;44020;50.890;15.796;2023-04-15T12:56:25;0.60;;;0.30;;
58222;SDS011;44020;50.890;15.796;2023-04-15T12:58:53;0.50;;;0.30;;
58222;SDS011;44020;50.890;15.796;2023-04-15T13:01:23;0.70;;;0.40;;
58222;SDS011;44020;50.890;15.796;2023-04-15T13:03:51;0.80;;;0.50;;
58222;SDS011;44020;50.890;15.796;2023-04-15T13:06:18;0.50;;;0.30;;
58222;SDS011;44020;50.890;15.796;2023-04-15T13:08:47;0.50;;;0.30;;
58222;SDS011;44020;50.890;15.796;2023-04-15T13:11:22;0.20;;;0.20;;
58222;SDS011;44020;50.890;15.796;2023-04-15T13:13:50;1.50;;;0.40;;
58222;SDS011;44020;50.890;15.796;2023-04-15T13:16:20;0.60;;;0.40;;
58222;SDS011;44020;50.890;15.796;2023-04-15T13:18:47;0.50;;;0.30;;
58222;SDS011;44020;50.890;15.796;2023-04-15T13:21:15;5.20;;;2.10;;
58222;SDS011;44020;50.890;15.796;2023-04-15T13:23:51;2.10;;;1.20;;
58222;SDS011;44020;50.890;15.796;2023-04-15T13:26:31;2.80;;;1.70;;
58222;SDS011;44020;50.890;15.796;2023-04-15T13:28:59;0.90;;;0.70;;
58222;SDS011;44020;50.890;15.796;2023-04-15T13:31:30;3.20;;;0.50;;
58222;SDS011;44020;50.890;15.796;2023-04-15T13:34:01;0.80;;;0.30;;
58222;SDS011;44020;50.890;15.796;2023-04-15T13:36:31;0.40;;;0.30;;
58222;SDS011;44020;50.890;15.796;2023-04-15T13:38:59;0.40;;;0.20;;
58222;SDS011;44020;50.890;15.796;2023-04-15T13:41:26;0.40;;;0.20;;
58222;SDS011;44020;50.890;15.796;2023-04-15T13:43:54;0.30;;;0.20;;
58222;SDS011;44020;50.890;15.796;2023-04-15T13:46:21;0.70;;;0.40;;
58222;SDS011;44020;50.890;15.796;2023-04-15T13:48:54;0.90;;;0.40;;
58222;SDS011;44020;50.890;15.796;2023-04-15T13:51:22;0.30;;;0.30;;
58222;SDS011;44020;50.890;15.796;2023-04-15T13:53:49;2.30;;;0.30;;
58222;SDS011;44020;50.890;15.796;2023-04-15T13:56:16;0.40;;;0.30;;
58222;SDS011;44020;50.890;15.796;2023-04-15T13:58:44;0.70;;;0.30;;
58222;SDS011;44020;50.890;15.796;2023-04-15T14:01:12;0.60;;;0.40;;
58222;SDS011;44020;50.890;15.796;2023-04-15T14:03:48;1.80;;;1.00;;
58222;SDS011;44020;50.890;15.796;2023-04-15T14:06:36;1.40;;;0.80;;
58222;SDS011;44020;50.890;15.796;2023-04-15T14:09:06;0.80;;;0.40;;
58222;SDS011;44020;50.890;15.796;2023-04-15T14:11:55;1.20;;;0.30;;
58222;SDS011;44020;50.890;15.796;2023-04-15T14:14:22;1.20;;;0.60;;
58222;SDS011;44020;50.890;15.796;2023-04-15T14:16:50;1.00;;;0.70;;
58222;SDS011;44020;50.890;15.796;2023-04-15T14:19:17;1.60;;;0.50;;
58222;SDS011;44020;50.890;15.796;2023-04-15T14:21:45;0.50;;;0.40;;
58222;SDS011;44020;50.890;15.796;2023-04-15T14:24:12;2.50;;;1.70;;
58222;SDS011;44020;50.890;15.796;2023-04-15T14:26:43;11.90;;;8.20;;
58222;SDS011;44020;50.890;15.796;2023-04-15T14:29:10;8.90;;;6.30;;
58222;SDS011;44020;50.890;15.796;2023-04-15T14:31:47;5.00;;;3.80;;
58222;SDS011;44020;50.890;15.796;2023-04-15T14:34:25;3.30;;;1.80;;
58222;SDS011;44020;50.890;15.796;2023-04-15T14:36:52;4.20;;;2.90;;
58222;SDS011;44020;50.890;15.796;2023-04-15T14:39:20;2.80;;;2.30;;
58222;SDS011;44020;50.890;15.796;2023-04-15T14:42:00;2.00;;;1.60;;
58222;SDS011;44020;50.890;15.796;2023-04-15T14:45:06;3.80;;;3.20;;
58222;SDS011;44020;50.890;15.796;2023-04-15T14:47:34;2.80;;;2.20;;
58222;SDS011;44020;50.890;15.796;2023-04-15T14:50:02;3.10;;;2.30;;
58222;SDS011;44020;50.890;15.796;2023-04-15T14:52:30;4.20;;;2.40;;
58222;SDS011;44020;50.890;15.796;2023-04-15T14:55:05;2.40;;;1.40;;
58222;SDS011;44020;50.890;15.796;2023-04-15T14:57:35;2.80;;;1.50;;
58222;SDS011;44020;50.890;15.796;2023-04-15T15:00:07;1.80;;;1.00;;
58222;SDS011;44020;50.890;15.796;2023-04-15T15:03:10;2.00;;;1.20;;
58222;SDS011;44020;50.890;15.796;2023-04-15T15:05:56;4.70;;;3.10;;
58222;SDS011;44020;50.890;15.796;2023-04-15T15:08:27;4.40;;;2.80;;
58222;SDS011;44020;50.890;15.796;2023-04-15T15:11:05;5.50;;;3.70;;
58222;SDS011;44020;50.890;15.796;2023-04-15T15:13:37;4.60;;;2.90;;
58222;SDS011;44020;50.890;15.796;2023-04-15T15:16:09;6.30;;;3.50;;
58222;SDS011;44020;50.890;15.796;2023-04-15T15:18:36;6.70;;;3.40;;
58222;SDS011;44020;50.890;15.796;2023-04-15T15:21:04;6.10;;;3.60;;
58222;SDS011;44020;50.890;15.796;2023-04-15T15:23:31;6.80;;;4.00;;
58222;SDS011;44020;50.890;15.796;2023-04-15T15:25:59;5.60;;;3.90;;
58222;SDS011;44020;50.890;15.796;2023-04-15T15:31:37;8.00;;;5.40;;
58222;SDS011;44020;50.890;15.796;2023-04-15T15:37:15;9.30;;;5.80;;
58222;SDS011;44020;50.890;15.796;2023-04-15T15:39:42;6.60;;;4.00;;
58222;SDS011;44020;50.890;15.796;2023-04-15T15:42:10;12.80;;;8.30;;
58222;SDS011;44020;50.890;15.796;2023-04-15T15:44:38;8.90;;;5.20;;
58222;SDS011;44020;50.890;15.796;2023-04-15T15:47:05;6.70;;;4.50;;
58222;SDS011;44020;50.890;15.796;2023-04-15T15:49:33;10.40;;;5.60;;
58222;SDS011;44020;50.890;15.796;2023-04-15T15:52:00;9.00;;;5.10;;
58222;SDS011;44020;50.890;15.796;2023-04-15T15:54:28;13.50;;;6.50;;
58222;SDS011;44020;50.890;15.796;2023-04-15T15:56:55;13.20;;;6.80;;
58222;SDS011;44020;50.890;15.796;2023-04-15T15:59:23;6.40;;;3.80;;
58222;SDS011;44020;50.890;15.796;2023-04-15T16:01:51;8.90;;;5.10;;
58222;SDS011;44020;50.890;15.796;2023-04-15T16:04:22;12.50;;;6.90;;
58222;SDS011;44020;50.890;15.796;2023-04-15T16:06:50;6.80;;;4.60;;
58222;SDS011;44020;50.890;15.796;2023-04-15T16:09:20;12.60;;;6.80;;
58222;SDS011;44020;50.890;15.796;2023-04-15T16:11:47;9.30;;;5.60;;
58222;SDS011;44020;50.890;15.796;2023-04-15T16:14:15;6.10;;;3.90;;
58222;SDS011;44020;50.890;15.796;2023-04-15T16:16:47;7.20;;;4.00;;
58222;SDS011;44020;50.890;15.796;2023-04-15T16:19:14;6.10;;;3.40;;
58222;SDS011;44020;50.890;15.796;2023-04-15T16:21:42;6.40;;;3.80;;
58222;SDS011;44020;50.890;15.796;2023-04-15T16:24:10;6.30;;;3.90;;
58222;SDS011;44020;50.890;15.796;2023-04-15T16:26:47;4.90;;;3.20;;
58222;SDS011;44020;50.890;15.796;2023-04-15T16:32:22;10.90;;;6.10;;
58222;SDS011;44020;50.890;15.796;2023-04-15T16:34:50;8.50;;;4.50;;
58222;SDS011;44020;50.890;15.796;2023-04-15T16:40:01;6.70;;;3.50;;
58222;SDS011;44020;50.890;15.796;2023-04-15T16:42:35;5.40;;;3.10;;
58222;SDS011;44020;50.890;15.796;2023-04-15T16:45:09;15.50;;;5.50;;
58222;SDS011;44020;50.890;15.796;2023-04-15T16:47:36;9.90;;;4.80;;
58222;SDS011;44020;50.890;15.796;2023-04-15T16:50:04;9.10;;;4.90;;
58222;SDS011;44020;50.890;15.796;2023-04-15T16:52:33;21.20;;;7.90;;
58222;SDS011;44020;50.890;15.796;2023-04-15T16:55:01;8.80;;;4.60;;
58222;SDS011;44020;50.890;15.796;2023-04-15T16:57:29;21.90;;;8.20;;
58222;SDS011;44020;50.890;15.796;2023-04-15T17:00:04;9.20;;;4.40;;
58222;SDS011;44020;50.890;15.796;2023-04-15T17:02:36;7.00;;;3.90;;
58222;SDS011;44020;50.890;15.796;2023-04-15T17:05:03;25.90;;;8.50;;
58222;SDS011;44020;50.890;15.796;2023-04-15T17:07:31;16.30;;;6.40;;
58222;SDS011;44020;50.890;15.796;2023-04-15T17:09:59;17.70;;;5.70;;
58222;SDS011;44020;50.890;15.796;2023-04-15T17:12:27;9.50;;;3.80;;
58222;SDS011;44020;50.890;15.796;2023-04-15T17:14:55;26.20;;;8.30;;
58222;SDS011;44020;50.890;15.796;2023-04-15T17:17:23;12.00;;;7.00;;
58222;SDS011;44020;50.890;15.796;2023-04-15T17:19:50;9.60;;;5.20;;
58222;SDS011;44020;50.890;15.796;2023-04-15T17:22:21;9.50;;;4.60;;
58222;SDS011;44020;50.890;15.796;2023-04-15T17:24:48;10.70;;;6.40;;
58222;SDS011;44020;50.890;15.796;2023-04-15T17:27:16;9.30;;;6.20;;
58222;SDS011;44020;50.890;15.796;2023-04-15T17:29:43;8.10;;;4.80;;
58222;SDS011;44020;50.890;15.796;2023-04-15T17:32:11;13.90;;;6.50;;
58222;SDS011;44020;50.890;15.796;2023-04-15T17:34:40;9.50;;;4.70;;
58222;SDS011;44020;50.890;15.796;2023-04-15T17:37:21;7.90;;;4.00;;
58222;SDS011;44020;50.890;15.796;2023-04-15T17:39:49;24.20;;;11.10;;
58222;SDS011;44020;50.890;15.796;2023-04-15T17:42:16;24.30;;;11.80;;
58222;SDS011;44020;50.890;15.796;2023-04-15T17:44:44;40.90;;;20.90;;
58222;SDS011;44020;50.890;15.796;2023-04-15T17:47:12;61.70;;;33.80;;
58222;SDS011;44020;50.890;15.796;2023-04-15T17:49:39;110.80;;;53.70;;
58222;SDS011;44020;50.890;15.796;2023-04-15T17:52:07;98.50;;;51.80;;
58222;SDS011;44020;50.890;15.796;2023-04-15T17:54:34;43.80;;;24.70;;
58222;SDS011;44020;50.890;15.796;2023-04-15T17:57:02;42.60;;;25.40;;
58222;SDS011;44020;50.890;15.796;2023-04-15T17:59:33;52.50;;;28.50;;
58222;SDS011;44020;50.890;15.796;2023-04-15T18:02:00;29.00;;;16.70;;
58222;SDS011;44020;50.890;15.796;2023-04-15T18:04:28;32.30;;;17.00;;
58222;SDS011;44020;50.890;15.796;2023-04-15T18:06:55;30.60;;;13.80;;
58222;SDS011;44020;50.890;15.796;2023-04-15T18:09:23;30.70;;;14.70;;
58222;SDS011;44020;50.890;15.796;2023-04-15T18:11:51;20.80;;;10.80;;
58222;SDS011;44020;50.890;15.796;2023-04-15T18:14:18;18.40;;;9.00;;
58222;SDS011;44020;50.890;15.796;2023-04-15T18:16:48;12.20;;;7.60;;
58222;SDS011;44020;50.890;15.796;2023-04-15T18:19:15;13.70;;;7.90;;
58222;SDS011;44020;50.890;15.796;2023-04-15T18:21:44;15.40;;;9.60;;
58222;SDS011;44020;50.890;15.796;2023-04-15T18:24:12;11.20;;;7.30;;
58222;SDS011;44020;50.890;15.796;2023-04-15T18:26:46;5.30;;;3.80;;
58222;SDS011;44020;50.890;15.796;2023-04-15T18:29:14;7.90;;;4.20;;
58222;SDS011;44020;50.890;15.796;2023-04-15T18:31:42;4.60;;;3.10;;
58222;SDS011;44020;50.890;15.796;2023-04-15T18:34:09;6.10;;;3.60;;
58222;SDS011;44020;50.890;15.796;2023-04-15T18:36:40;9.80;;;5.20;;
58222;SDS011;44020;50.890;15.796;2023-04-15T18:39:08;12.70;;;6.70;;
58222;SDS011;44020;50.890;15.796;2023-04-15T18:41:36;11.60;;;7.10;;
58222;SDS011;44020;50.890;15.796;2023-04-15T18:44:06;12.30;;;6.90;;
58222;SDS011;44020;50.890;15.796;2023-04-15T18:46:42;15.00;;;8.00;;
58222;SDS011;44020;50.890;15.796;2023-04-15T18:49:21;13.00;;;7.70;;
58222;SDS011;44020;50.890;15.796;2023-04-15T18:51:49;12.40;;;7.40;;
58222;SDS011;44020;50.890;15.796;2023-04-15T18:54:17;12.40;;;7.30;;
58222;SDS011;44020;50.890;15.796;2023-04-15T18:56:44;13.80;;;8.10;;
58222;SDS011;44020;50.890;15.796;2023-04-15T18:59:12;13.70;;;7.40;;
58222;SDS011;44020;50.890;15.796;2023-04-15T19:01:43;11.80;;;6.20;;
58222;SDS011;44020;50.890;15.796;2023-04-15T19:04:10;11.30;;;6.90;;
58222;SDS011;44020;50.890;15.796;2023-04-15T19:06:38;16.50;;;8.20;;